createdAt,value
2022-10-30T00:01:14.745Z,102107.47
2022-10-30T00:03:42.513Z,102112.37
2022-10-30T00:06:10.452Z,102105.80
2022-10-30T00:08:38.353Z,102112.17
2022-10-30T00:11:13.594Z,102112.86
2022-10-30T00:13:44.057Z,102106.81
2022-10-30T00:16:11.916Z,102111.16
2022-10-30T00:18:40.463Z,102109.27
2022-10-30T00:21:09.984Z,102107.59
2022-10-30T00:23:37.827Z,102114.30
2022-10-30T00:26:06.746Z,102111.95
2022-10-30T00:28:34.489Z,102116.66
2022-10-30T00:31:03.357Z,102108.91
2022-10-30T00:33:31.382Z,102115.31
2022-10-30T00:35:59.223Z,102112.24
2022-10-30T00:38:29.515Z,102115.77
2022-10-30T00:40:57.309Z,102100.08
2022-10-30T00:43:31.500Z,102100.93
2022-10-30T00:46:09.880Z,102102.10
2022-10-30T00:48:37.801Z,102085.92
2022-10-30T00:51:06.362Z,102099.39
2022-10-30T00:53:34.109Z,102091.97
2022-10-30T00:56:04.076Z,102092.82
2022-10-30T00:58:34.479Z,102092.82
2022-10-30T01:01:03.818Z,102096.52
2022-10-30T01:03:31.645Z,102092.27
2022-10-30T01:06:04.447Z,102091.41
2022-10-30T01:08:32.302Z,102086.87
2022-10-30T01:11:00.339Z,102081.15
2022-10-30T01:13:28.296Z,102080.63
2022-10-30T01:16:08.231Z,102085.49
2022-10-30T01:18:48.026Z,102082.29
2022-10-30T01:21:32.544Z,102085.69
2022-10-30T01:24:25.314Z,102077.09
2022-10-30T01:27:14.319Z,102073.07
2022-10-30T01:30:04.356Z,102075.82
2022-10-30T01:32:42.183Z,102077.32
2022-10-30T01:35:21.191Z,102079.35
2022-10-30T01:37:59.283Z,102071.27
2022-10-30T01:40:27.314Z,102071.60
2022-10-30T01:42:56.195Z,102076.18
2022-10-30T01:45:49.162Z,102072.41
2022-10-30T01:48:23.128Z,102070.20
2022-10-30T01:51:23.200Z,102066.83
2022-10-30T01:54:12.044Z,102068.85
2022-10-30T01:57:06.456Z,102066.95
2022-10-30T01:59:36.880Z,102061.07
2022-10-30T02:02:04.938Z,102058.20
2022-10-30T02:04:33.154Z,102045.90
2022-10-30T02:07:00.955Z,102045.90
2022-10-30T02:09:28.721Z,102044.20
2022-10-30T02:11:56.555Z,102049.79
2022-10-30T02:14:32.553Z,102048.61
2022-10-30T02:17:01.681Z,102038.51
2022-10-30T02:19:29.464Z,102036.74
2022-10-30T02:21:57.232Z,102038.22
2022-10-30T02:24:24.995Z,102033.54
2022-10-30T02:26:52.937Z,102031.52
2022-10-30T02:29:22.830Z,102040.11
2022-10-30T02:31:50.805Z,102041.29
2022-10-30T02:34:18.668Z,102042.47
2022-10-30T02:36:46.496Z,102036.38
2022-10-30T02:39:16.660Z,102036.94
2022-10-30T02:41:44.451Z,102035.57
2022-10-30T02:44:12.236Z,102041.91
2022-10-30T02:46:40.193Z,102043.94
2022-10-30T02:49:08.018Z,102038.51
2022-10-30T02:51:35.811Z,102031.64
2022-10-30T02:54:03.628Z,102027.07
2022-10-30T02:56:31.431Z,102030.76
2022-10-30T02:58:59.277Z,102025.04
2022-10-30T03:01:27.258Z,102029.62
2022-10-30T03:03:55.069Z,102041.71
2022-10-30T03:06:22.937Z,102042.89
2022-10-30T03:08:50.875Z,102036.48
2022-10-30T03:11:19.657Z,102035.60
2022-10-30T03:13:48.212Z,102044.20
2022-10-30T03:16:21.117Z,102044.20
2022-10-30T03:18:49.094Z,102036.13
2022-10-30T03:21:18.363Z,102035.83
2022-10-30T03:23:46.503Z,102038.87
2022-10-30T03:26:14.301Z,102033.15
2022-10-30T03:28:42.061Z,102038.87
2022-10-30T03:31:11.480Z,102037.17
2022-10-30T03:33:39.404Z,102034.65
2022-10-30T03:36:08.055Z,102039.20
2022-10-30T03:38:36.015Z,102037.70
2022-10-30T03:41:03.900Z,102041.55
2022-10-30T03:43:31.624Z,102047.30
2022-10-30T03:45:59.494Z,102046.78
2022-10-30T03:48:28.310Z,102045.60
2022-10-30T03:50:56.828Z,102047.47
2022-10-30T03:53:27.219Z,102046.95
2022-10-30T03:55:58.144Z,102045.38
2022-10-30T03:58:26.357Z,102045.02
2022-10-30T04:00:54.517Z,102047.34
2022-10-30T04:03:22.537Z,102046.52
2022-10-30T04:05:54.216Z,102049.04
2022-10-30T04:08:22.083Z,102050.74
2022-10-30T04:10:49.936Z,102048.58
2022-10-30T04:13:18.328Z,102053.32
2022-10-30T04:15:46.097Z,102048.13
2022-10-30T04:18:14.538Z,102053.68
2022-10-30T04:20:42.383Z,102041.71
2022-10-30T04:23:11.886Z,102034.00
2022-10-30T04:25:39.658Z,102033.64
2022-10-30T04:28:07.524Z,102040.73
2022-10-30T04:30:36.453Z,102040.44
2022-10-30T04:33:05.581Z,102046.16
2022-10-30T04:35:34.822Z,102052.18
2022-10-30T04:38:06.972Z,102051.30
2022-10-30T04:40:35.932Z,102043.05
2022-10-30T04:43:06.436Z,102043.87
2022-10-30T04:45:34.324Z,102044.20
2022-10-30T04:48:05.151Z,102041.98
2022-10-30T04:50:33.899Z,102040.83
2022-10-30T04:53:09.210Z,102039.85
2022-10-30T04:55:37.060Z,102040.37
2022-10-30T04:58:04.868Z,102028.08
2022-10-30T05:00:32.858Z,102036.98
2022-10-30T05:03:02.017Z,102029.23
2022-10-30T05:05:30.735Z,102029.95
2022-10-30T05:07:58.801Z,102028.99
2022-10-30T05:10:26.847Z,102027.49
2022-10-30T05:12:55.514Z,102026.48
2022-10-30T05:15:26.264Z,102024.16
2022-10-30T05:17:54.847Z,102021.48
2022-10-30T05:20:22.799Z,102020.27
2022-10-30T05:23:03.225Z,102013.40
2022-10-30T05:25:31.000Z,102014.25
2022-10-30T05:28:02.498Z,102015.91
2022-10-30T05:30:31.919Z,102013.40
2022-10-30T05:33:03.587Z,102014.74
2022-10-30T05:35:34.050Z,102008.33
2022-10-30T05:38:02.722Z,102006.66
2022-10-30T05:40:30.434Z,102007.19
2022-10-30T05:42:58.439Z,102006.34
2022-10-30T05:45:26.480Z,102011.21
2022-10-30T05:47:59.000Z,102008.04
2022-10-30T05:50:27.499Z,102005.68
2022-10-30T05:52:59.000Z,102008.20
2022-10-30T05:55:26.739Z,102009.37
2022-10-30T05:57:59.036Z,102015.43
2022-10-30T06:00:28.166Z,102005.16
2022-10-30T06:03:07.261Z,102009.70
2022-10-30T06:05:36.758Z,102007.19
2022-10-30T06:08:05.049Z,102016.60
2022-10-30T06:10:33.000Z,102013.23
2022-10-30T06:13:05.292Z,102014.05
2022-10-30T06:15:33.540Z,102016.44
2022-10-30T06:18:01.885Z,102009.51
2022-10-30T06:20:31.067Z,102011.54
2022-10-30T06:23:02.254Z,102011.21
2022-10-30T06:25:32.394Z,102004.31
2022-10-30T06:28:05.136Z,102011.08
2022-10-30T06:30:33.042Z,102012.74
2022-10-30T06:33:05.204Z,102013.27
2022-10-30T06:35:33.411Z,102018.14
2022-10-30T06:38:06.656Z,102014.94
2022-10-30T06:40:34.550Z,102013.79
2022-10-30T06:43:04.576Z,102015.82
2022-10-30T06:45:32.518Z,102024.71
2022-10-30T06:48:01.741Z,102023.54
2022-10-30T06:50:32.793Z,102021.18
2022-10-30T06:53:00.665Z,102021.70
2022-10-30T06:55:28.525Z,102027.46
2022-10-30T06:57:57.569Z,102022.20
2022-10-30T07:00:26.045Z,102029.95
2022-10-30T07:03:01.671Z,102027.46
2022-10-30T07:05:29.911Z,102025.73
2022-10-30T07:07:58.715Z,102028.93
2022-10-30T07:10:26.561Z,102040.93
2022-10-30T07:12:55.945Z,102042.44
2022-10-30T07:15:24.217Z,102035.86
2022-10-30T07:18:02.851Z,102038.38
2022-10-30T07:20:31.866Z,102027.75
2022-10-30T07:22:59.936Z,102042.59
2022-10-30T07:25:27.791Z,102048.84
2022-10-30T07:27:55.955Z,102044.98
2022-10-30T07:32:59.281Z,102049.20
2022-10-30T07:35:27.510Z,102050.37
2022-10-30T07:37:55.383Z,102046.65
2022-10-30T07:40:23.255Z,102046.16
2022-10-30T07:42:51.030Z,102059.30
2022-10-30T07:45:21.525Z,102058.78
2022-10-30T07:47:50.180Z,102069.24
2022-10-30T07:50:18.035Z,102064.54
2022-10-30T07:52:46.997Z,102058.48
2022-10-30T07:55:14.837Z,102058.98
2022-10-30T07:57:43.241Z,102059.50
2022-10-30T08:00:12.900Z,102061.04
2022-10-30T08:02:40.981Z,102061.20
2022-10-30T08:05:09.154Z,102063.42
2022-10-30T08:07:38.163Z,102056.52
2022-10-30T08:10:06.774Z,102057.18
2022-10-30T08:12:35.329Z,102056.04
2022-10-30T08:15:03.187Z,102058.06
2022-10-30T08:17:30.957Z,102055.35
2022-10-30T08:19:58.831Z,102053.65
2022-10-30T08:22:26.627Z,102057.05
2022-10-30T08:24:54.339Z,102057.21
2022-10-30T08:27:22.050Z,102059.41
2022-10-30T08:29:50.674Z,102054.01
2022-10-30T08:32:18.376Z,102054.01
2022-10-30T08:34:46.148Z,102044.59
2022-10-30T08:37:13.937Z,102046.59
2022-10-30T08:39:41.746Z,102045.28
2022-10-30T08:42:09.551Z,102051.20
2022-10-30T08:44:37.386Z,102047.66
2022-10-30T08:47:05.171Z,102043.22
2022-10-30T08:49:32.937Z,102047.08
2022-10-30T08:52:00.777Z,102051.16
2022-10-30T08:54:28.580Z,102051.16
2022-10-30T08:56:56.407Z,102051.36
2022-10-30T08:59:24.284Z,102048.48
2022-10-30T09:01:52.269Z,102050.51
2022-10-30T09:04:21.398Z,102047.83
2022-10-30T09:06:49.229Z,102050.18
2022-10-30T09:09:17.461Z,102047.99
2022-10-30T09:11:45.165Z,102046.45
2022-10-30T09:14:12.951Z,102042.23
2022-10-30T09:16:40.766Z,102038.02
2022-10-30T09:19:08.813Z,102038.91
2022-10-30T09:21:36.649Z,102034.49
2022-10-30T09:24:04.509Z,102035.50
2022-10-30T09:26:32.325Z,102038.87
2022-10-30T09:29:01.152Z,102042.59
2022-10-30T09:31:28.985Z,102038.70
2022-10-30T09:33:56.882Z,102035.99
2022-10-30T09:36:24.970Z,102039.36
2022-10-30T09:38:52.811Z,102040.87
2022-10-30T09:41:50.205Z,102041.39
2022-10-30T09:44:41.257Z,102039.88
2022-10-30T09:47:12.980Z,102040.02
2022-10-30T09:49:59.326Z,102039.82
2022-10-30T09:52:40.499Z,102040.02
2022-10-30T09:55:26.410Z,102040.18
2022-10-30T09:58:00.077Z,102049.10
2022-10-30T10:00:34.772Z,102046.09
2022-10-30T10:03:11.664Z,102040.34
2022-10-30T10:05:45.379Z,102043.02
2022-10-30T10:08:17.274Z,102040.83
2022-10-30T10:10:50.278Z,102036.74
2022-10-30T10:13:39.739Z,102036.91
2022-10-30T10:16:13.394Z,102047.70
2022-10-30T10:18:46.820Z,102038.70
2022-10-30T10:21:25.447Z,102043.61
2022-10-30T10:23:57.669Z,102044.27
2022-10-30T10:26:28.435Z,102039.36
2022-10-30T10:29:15.487Z,102034.81
2022-10-30T10:32:10.478Z,102043.05
2022-10-30T10:35:04.908Z,102040.83
2022-10-30T10:37:44.822Z,102043.19
2022-10-30T10:40:33.916Z,102040.63
2022-10-30T10:43:07.588Z,102034.20
2022-10-30T10:46:05.693Z,102037.53
2022-10-30T10:48:33.543Z,102033.64
2022-10-30T10:51:08.083Z,102031.25
2022-10-30T10:53:50.010Z,102017.32
2022-10-30T10:56:17.822Z,102026.45
2022-10-30T10:58:51.592Z,102020.89
2022-10-30T11:01:22.745Z,102023.05
2022-10-30T11:03:59.036Z,102021.15
2022-10-30T11:06:33.194Z,102022.36
2022-10-30T11:09:23.257Z,102019.84
2022-10-30T11:11:52.069Z,102012.42
2022-10-30T11:14:21.525Z,102007.65
2022-10-30T11:17:28.244Z,102004.96
2022-10-30T11:20:00.148Z,102010.49
2022-10-30T11:22:35.543Z,102002.71
2022-10-30T11:25:25.471Z,102004.54
2022-10-30T11:27:59.467Z,101999.08
2022-10-30T11:30:29.723Z,101993.45
2022-10-30T11:32:58.184Z,101992.21
2022-10-30T11:35:28.544Z,101995.55
2022-10-30T11:38:19.852Z,101987.38
2022-10-30T11:40:48.635Z,101986.39
2022-10-30T11:43:17.676Z,101982.05
2022-10-30T11:45:45.713Z,101985.84
2022-10-30T11:48:24.602Z,101976.84
2022-10-30T11:50:59.995Z,101977.20
2022-10-30T11:53:41.251Z,101970.99
2022-10-30T11:56:20.433Z,101964.81
2022-10-30T11:58:50.759Z,101968.87
2022-10-30T12:01:28.727Z,101967.66
2022-10-30T12:03:56.870Z,101966.48
2022-10-30T12:06:24.606Z,101958.38
2022-10-30T12:09:05.831Z,101952.95
2022-10-30T12:11:37.044Z,101949.22
2022-10-30T12:14:05.083Z,101943.79
2022-10-30T12:16:32.906Z,101950.46
2022-10-30T12:19:05.611Z,101942.52
2022-10-30T12:21:41.117Z,101940.36
2022-10-30T12:24:16.063Z,101942.38
2022-10-30T12:26:47.662Z,101932.21
2022-10-30T12:29:17.121Z,101932.90
2022-10-30T12:31:50.366Z,101925.12
2022-10-30T12:34:24.041Z,101931.46
2022-10-30T12:36:55.203Z,101928.06
2022-10-30T12:39:32.612Z,101926.20
2022-10-30T12:42:13.577Z,101915.80
2022-10-30T12:44:54.378Z,101923.42
2022-10-30T12:47:25.772Z,101917.41
2022-10-30T12:52:52.206Z,101918.81
2022-10-30T12:55:24.648Z,101914.52
2022-10-30T12:57:58.066Z,101916.69
2022-10-30T13:00:25.864Z,101915.57
2022-10-30T13:03:21.766Z,101916.95
2022-10-30T13:08:39.992Z,101912.17
2022-10-30T13:11:32.962Z,101903.80
2022-10-30T13:14:00.771Z,101905.47
2022-10-30T13:16:32.393Z,101907.82
2022-10-30T13:19:03.670Z,101896.09
2022-10-30T13:21:40.621Z,101899.65
2022-10-30T13:24:41.573Z,101902.20
2022-10-30T13:27:23.544Z,101905.77
2022-10-30T13:29:55.761Z,101904.81
2022-10-30T13:32:44.840Z,101896.15
2022-10-30T13:35:19.136Z,101903.87
2022-10-30T13:38:08.972Z,101901.19
2022-10-30T13:40:54.827Z,101903.77
2022-10-30T13:43:44.421Z,101906.25
2022-10-30T13:46:24.772Z,101905.50
2022-10-30T13:49:14.391Z,101910.15
2022-10-30T13:51:46.796Z,101904.29
2022-10-30T13:54:38.693Z,101907.66
2022-10-30T13:57:15.746Z,101904.09
2022-10-30T14:00:03.677Z,101895.95
2022-10-30T14:02:40.909Z,101901.38
2022-10-30T14:05:38.229Z,101895.76
2022-10-30T14:08:43.824Z,101899.26
2022-10-30T14:11:13.798Z,101905.14
2022-10-30T14:13:56.679Z,101898.21
2022-10-30T14:16:47.227Z,101908.77
2022-10-30T14:19:18.849Z,101913.48
2022-10-30T14:21:56.355Z,101914.43
2022-10-30T14:24:30.540Z,101920.77
2022-10-30T14:27:04.696Z,101912.86
2022-10-30T14:29:35.632Z,101913.25
2022-10-30T14:32:15.948Z,101910.21
2022-10-30T14:35:02.412Z,101913.09
2022-10-30T14:37:30.934Z,101908.02
2022-10-30T14:39:59.045Z,101911.62
2022-10-30T14:42:56.763Z,101909.55
2022-10-30T14:45:26.825Z,101906.58
2022-10-30T14:47:54.804Z,101905.96
2022-10-30T14:50:28.892Z,101905.11
2022-10-30T14:53:35.773Z,101904.65
2022-10-30T14:56:19.936Z,101899.98
2022-10-30T14:59:11.869Z,101910.87
2022-10-30T15:01:47.832Z,101903.77
2022-10-30T15:04:27.708Z,101904.26
2022-10-30T15:07:05.619Z,101907.23
2022-10-30T15:10:07.236Z,101903.73
2022-10-30T15:12:44.320Z,101909.36
2022-10-30T15:15:20.431Z,101908.61
2022-10-30T15:17:49.584Z,101902.59
2022-10-30T15:20:17.776Z,101907.53
2022-10-30T15:22:46.352Z,101901.77
2022-10-30T15:25:22.032Z,101900.63
2022-10-30T15:27:54.251Z,101898.96
2022-10-30T15:30:24.095Z,101903.90
2022-10-30T15:32:52.549Z,101900.37
2022-10-30T15:35:22.308Z,101903.12
2022-10-30T15:38:04.046Z,101905.86
2022-10-30T15:40:32.099Z,101912.53
2022-10-30T15:43:01.656Z,101913.25
2022-10-30T15:45:39.951Z,101916.33
2022-10-30T15:48:10.969Z,101913.68
2022-10-30T15:50:42.466Z,101920.41
2022-10-30T15:53:24.715Z,101920.28
2022-10-30T15:55:52.765Z,101921.69
2022-10-30T15:58:22.968Z,101919.13
2022-10-30T16:01:02.268Z,101927.77
2022-10-30T16:03:30.986Z,101921.23
2022-10-30T16:06:07.773Z,101923.12
2022-10-30T16:08:44.643Z,101920.97
2022-10-30T16:11:12.685Z,101918.09
2022-10-30T16:13:40.696Z,101923.32
2022-10-30T16:18:52.149Z,101927.96
2022-10-30T16:21:22.103Z,101935.95
2022-10-30T16:23:52.091Z,101934.11
2022-10-30T16:26:38.524Z,101944.12
2022-10-30T16:29:15.527Z,101935.84
2022-10-30T16:31:44.464Z,101931.63
2022-10-30T16:34:15.621Z,101941.44
2022-10-30T16:36:43.901Z,101952.91
2022-10-30T16:39:15.360Z,101942.97
2022-10-30T16:41:44.231Z,101945.69
2022-10-30T16:44:31.037Z,101952.62
2022-10-30T16:47:24.237Z,101948.04
2022-10-30T16:49:59.357Z,101947.22
2022-10-30T16:52:29.589Z,101956.51
2022-10-30T16:55:02.655Z,101947.91
2022-10-30T16:57:32.210Z,101951.96
2022-10-30T17:00:00.976Z,101953.14
2022-10-30T17:02:31.319Z,101951.96
2022-10-30T17:05:12.902Z,101955.16
2022-10-30T17:07:41.119Z,101953.83
2022-10-30T17:10:34.034Z,101954.19
2022-10-30T17:13:35.992Z,101953.66
2022-10-30T17:16:40.872Z,101957.59
2022-10-30T17:19:33.441Z,101962.49
2022-10-30T17:22:05.936Z,101964.88
2022-10-30T17:24:38.205Z,101968.93
2022-10-30T17:27:07.685Z,101969.78
2022-10-30T17:29:38.576Z,101970.08
2022-10-30T17:32:07.858Z,101975.83
2022-10-30T17:34:38.963Z,101971.29
2022-10-30T17:37:07.072Z,101975.34
2022-10-30T17:39:35.100Z,101974.16
2022-10-30T17:42:03.087Z,101971.29
2022-10-30T17:44:35.683Z,101974.16
2022-10-30T17:47:15.327Z,101973.64
2022-10-30T17:49:43.618Z,101974.85
2022-10-30T17:52:15.378Z,101977.20
2022-10-30T17:54:43.706Z,101976.71
2022-10-30T17:57:15.293Z,101987.34
2022-10-30T17:59:48.104Z,101984.46
2022-10-30T18:02:18.205Z,101983.61
2022-10-30T18:04:46.473Z,101987.18
2022-10-30T18:07:15.014Z,101995.81
2022-10-30T18:09:43.601Z,101996.30
2022-10-30T18:12:16.246Z,101998.66
2022-10-30T18:14:47.286Z,101999.70
2022-10-30T18:17:15.322Z,102005.45
2022-10-30T18:19:43.414Z,102009.48
2022-10-30T18:22:11.657Z,102008.63
2022-10-30T18:24:39.604Z,102003.95
2022-10-30T18:27:12.513Z,102008.85
2022-10-30T18:29:40.884Z,102014.91
2022-10-30T18:32:10.627Z,102011.21
2022-10-30T18:34:38.935Z,102012.02
2022-10-30T18:37:06.842Z,102023.17
2022-10-30T18:39:39.906Z,102021.15
2022-10-30T18:42:09.249Z,102018.60
2022-10-30T18:44:37.248Z,102019.13
2022-10-30T18:47:09.930Z,102010.00
2022-10-30T18:49:37.808Z,102020.33
2022-10-30T18:52:10.400Z,102019.80
2022-10-30T18:54:38.457Z,102020.98
2022-10-30T18:57:06.978Z,102021.80
2022-10-30T18:59:36.426Z,102030.27
2022-10-30T19:02:04.757Z,102027.39
2022-10-30T19:04:32.777Z,102032.30
2022-10-30T19:07:01.561Z,102029.42
2022-10-30T19:09:29.612Z,102028.24
2022-10-30T19:11:57.680Z,102029.91
2022-10-30T19:14:26.095Z,102030.59
2022-10-30T19:16:54.432Z,102031.94
2022-10-30T19:19:27.465Z,102034.33
2022-10-30T19:21:55.736Z,102036.68
2022-10-30T19:24:24.004Z,102033.80
2022-10-30T19:26:56.835Z,102021.15
2022-10-30T19:29:29.816Z,102027.72
2022-10-30T19:32:00.622Z,102024.16
2022-10-30T19:34:28.796Z,102026.02
2022-10-30T19:37:01.595Z,102032.79
2022-10-30T19:39:35.462Z,102024.19
2022-10-30T19:42:06.586Z,102022.33
2022-10-30T19:44:34.935Z,102031.09
2022-10-30T19:47:05.873Z,102023.66
2022-10-30T19:49:35.923Z,102028.90
2022-10-30T19:52:04.929Z,102029.09
2022-10-30T19:54:33.497Z,102028.21
2022-10-30T19:57:01.456Z,102032.27
2022-10-30T19:59:32.601Z,102027.20
2022-10-30T20:02:09.794Z,102026.02
2022-10-30T20:04:39.237Z,102027.07
2022-10-30T20:07:12.015Z,102032.10
2022-10-30T20:09:40.433Z,102033.48
2022-10-30T20:12:11.564Z,102028.41
2022-10-30T20:14:39.902Z,102038.15
2022-10-30T20:17:08.141Z,102032.43
2022-10-30T20:19:39.369Z,102034.13
2022-10-30T20:22:07.529Z,102033.31
2022-10-30T20:24:36.089Z,102026.22
2022-10-30T20:27:04.251Z,102028.90
2022-10-30T20:29:36.837Z,102037.66
2022-10-30T20:32:05.176Z,102041.35
2022-10-30T20:34:33.458Z,102048.94
2022-10-30T20:37:04.195Z,102043.91
2022-10-30T20:39:32.384Z,102053.65
2022-10-30T20:42:04.852Z,102051.98
2022-10-30T20:44:33.178Z,102060.58
2022-10-30T20:47:01.191Z,102068.33
2022-10-30T20:49:29.072Z,102063.78
2022-10-30T20:51:56.959Z,102069.18
2022-10-30T20:54:24.920Z,102069.67
2022-10-30T20:56:53.030Z,102068.79
2022-10-30T20:59:21.117Z,102078.07
2022-10-30T21:01:49.982Z,102075.52
2022-10-30T21:04:18.451Z,102084.45
2022-10-30T21:06:46.504Z,102074.84
2022-10-30T21:09:14.633Z,102084.28
2022-10-30T21:11:42.706Z,102082.59
2022-10-30T21:14:10.797Z,102075.16
2022-10-30T21:16:38.943Z,102082.39
2022-10-30T21:19:07.064Z,102081.05
2022-10-30T21:21:34.998Z,102083.89
2022-10-30T21:24:03.290Z,102081.37
2022-10-30T21:26:31.236Z,102084.55
2022-10-30T21:28:59.430Z,102080.00
2022-10-30T21:31:27.346Z,102090.95
2022-10-30T21:33:55.681Z,102093.99
2022-10-30T21:36:23.742Z,102092.91
2022-10-30T21:38:51.674Z,102097.98
2022-10-30T21:41:21.158Z,102091.91
2022-10-30T21:43:57.117Z,102093.60
2022-10-30T21:46:26.406Z,102090.04
2022-10-30T21:48:54.452Z,102085.82
2022-10-30T21:51:25.517Z,102078.73
2022-10-30T21:53:53.911Z,102076.54
2022-10-30T21:56:24.331Z,102070.81
2022-10-30T21:58:54.735Z,102068.91
2022-10-30T22:01:31.314Z,102063.85
2022-10-30T22:04:03.212Z,102064.37
2022-10-30T22:06:31.253Z,102068.72
2022-10-30T22:09:01.025Z,102059.30
2022-10-30T22:11:29.643Z,102055.61
2022-10-30T22:14:02.243Z,102055.61
2022-10-30T22:16:31.036Z,102062.02
2022-10-30T22:18:59.123Z,102065.23
2022-10-30T22:21:27.015Z,102062.15
2022-10-30T22:23:54.906Z,102070.20
2022-10-30T22:26:23.970Z,102064.63
2022-10-30T22:28:55.613Z,102066.66
2022-10-30T22:31:24.104Z,102067.15
2022-10-30T22:33:53.598Z,102062.28
2022-10-30T22:36:25.981Z,102067.67
2022-10-30T22:39:07.432Z,102070.00
2022-10-30T22:41:38.042Z,102075.23
2022-10-30T22:44:12.276Z,102070.81
2022-10-30T22:46:40.250Z,102070.62
2022-10-30T22:49:08.221Z,102069.48
2022-10-30T22:51:37.546Z,102067.25
2022-10-30T22:54:07.392Z,102062.67
2022-10-30T22:56:36.091Z,102074.05
2022-10-30T22:59:06.449Z,102072.68
2022-10-30T23:01:35.826Z,102067.71
2022-10-30T23:04:04.211Z,102071.04
2022-10-30T23:06:32.452Z,102064.80
2022-10-30T23:09:00.957Z,102068.00
2022-10-30T23:11:29.176Z,102074.54
2022-10-30T23:13:57.302Z,102065.91
2022-10-30T23:16:25.999Z,102062.73
2022-10-30T23:18:56.175Z,102057.96
2022-10-30T23:21:25.027Z,102062.02
2022-10-30T23:23:53.119Z,102059.99
2022-10-30T23:26:21.629Z,102067.38
2022-10-30T23:28:50.327Z,102069.12
2022-10-30T23:31:22.936Z,102067.61
2022-10-30T23:33:51.995Z,102069.48
2022-10-30T23:36:21.001Z,102070.03
2022-10-30T23:38:55.943Z,102061.23
2022-10-30T23:41:24.542Z,102067.80
2022-10-30T23:43:56.285Z,102070.65
2022-10-30T23:46:24.091Z,102068.30
2022-10-30T23:48:51.861Z,102063.75
2022-10-30T23:51:20.800Z,102064.93
2022-10-30T23:53:48.784Z,102070.98
2022-10-30T23:56:16.889Z,102070.65
2022-10-30T23:58:48.546Z,102076.90
